createdAt,value
2019-04-27T07:02:19.056Z,8.60
2019-04-27T07:07:24.479Z,8.08
2019-04-27T07:12:29.072Z,7.92
2019-04-27T07:17:33.535Z,8.48
2019-04-27T07:22:39.554Z,8.66
2019-04-27T07:27:43.536Z,9.20
2019-04-27T07:32:48.826Z,9.59
2019-04-27T07:37:53.141Z,9.11
2019-04-27T07:42:57.258Z,7.90
2019-04-27T07:48:03.334Z,7.47
2019-04-27T07:53:08.653Z,7.94
2019-04-27T07:58:13.183Z,8.58
2019-04-27T08:03:17.188Z,9.14
2019-04-27T08:08:21.364Z,9.34
2019-04-27T08:13:25.432Z,9.77
2019-04-27T08:18:29.925Z,10.41
2019-04-27T08:23:34.121Z,10.38
2019-04-27T08:28:38.672Z,10.32
2019-04-27T08:33:44.825Z,10.35
2019-04-27T08:38:49.074Z,11.02
2019-04-27T08:43:53.311Z,10.94
2019-04-27T08:48:58.693Z,10.54
2019-04-27T08:54:03.069Z,9.67
2019-04-27T08:59:07.250Z,9.63
2019-04-27T09:04:11.658Z,10.88
2019-04-27T09:09:15.790Z,10.56
2019-04-27T09:14:19.882Z,9.33
2019-04-27T09:19:28.720Z,8.55
2019-04-27T09:24:33.031Z,7.94
2019-04-27T09:29:37.294Z,7.82
2019-04-27T09:34:41.425Z,7.39
2019-04-27T09:39:46.069Z,7.55
2019-04-27T09:44:50.563Z,8.99
2019-04-27T09:49:56.418Z,10.06
2019-04-27T09:55:00.678Z,11.51
2019-04-27T10:00:07.597Z,11.51
2019-04-27T10:05:11.843Z,11.27
2019-04-27T10:10:16.200Z,11.83
2019-04-27T10:15:20.610Z,11.48
2019-04-27T10:20:24.736Z,11.38
2019-04-27T10:25:28.791Z,9.38
2019-04-27T10:30:33.149Z,8.29
2019-04-27T10:35:37.658Z,9.46
2019-04-27T10:40:41.656Z,12.08
2019-04-27T10:45:46.280Z,12.08
2019-04-27T10:50:50.608Z,12.72
2019-04-27T10:55:56.468Z,12.92
2019-04-27T11:01:00.871Z,12.93
2019-04-27T11:06:05.916Z,13.11
2019-04-27T11:11:11.081Z,13.53
2019-04-27T11:16:20.353Z,12.08
2019-04-27T11:21:27.471Z,11.94
2019-04-27T11:26:31.587Z,12.87
2019-04-27T11:31:36.343Z,13.06
2019-04-27T11:36:40.888Z,12.64
2019-04-27T11:41:44.987Z,12.83
2019-04-27T11:46:49.135Z,13.10
2019-04-27T11:51:53.451Z,13.30
2019-04-27T11:56:57.960Z,13.37
2019-04-27T12:02:02.085Z,13.16
2019-04-27T12:07:06.579Z,13.06
2019-04-27T12:12:15.973Z,12.20
2019-04-27T12:17:17.530Z,11.27
2019-04-27T12:22:21.697Z,11.27
2019-04-27T12:27:26.151Z,10.42
2019-04-27T12:32:30.513Z,11.96
2019-04-27T12:37:35.719Z,12.90
2019-04-27T12:42:40.314Z,12.75
2019-04-27T12:47:46.411Z,13.48
2019-04-27T12:52:51.326Z,13.44
2019-04-27T12:57:55.617Z,13.23
2019-04-27T13:02:59.785Z,13.51
2019-04-27T13:08:03.970Z,13.43
2019-04-27T13:13:09.185Z,13.39
2019-04-27T13:18:16.572Z,11.77
2019-04-27T13:23:20.955Z,11.64
2019-04-27T13:28:25.752Z,11.68
2019-04-27T13:33:30.356Z,11.68
2019-04-27T13:38:36.347Z,11.92
2019-04-27T13:43:41.229Z,12.27
2019-04-27T13:48:46.678Z,12.86
2019-04-27T13:53:52.427Z,12.65
2019-04-27T13:58:58.354Z,13.68
2019-04-27T14:04:02.924Z,13.27
2019-04-27T14:09:09.278Z,13.09
2019-04-27T14:14:13.760Z,12.72
2019-04-27T14:19:18.902Z,13.02
2019-04-27T14:24:29.848Z,12.72
2019-04-27T14:29:29.826Z,12.86
2019-04-27T14:34:33.984Z,12.65
2019-04-27T14:39:39.025Z,13.37
2019-04-27T14:44:43.323Z,13.60
2019-04-27T14:49:49.115Z,13.02
2019-04-27T14:54:53.436Z,13.05
2019-04-27T15:00:00.294Z,12.65
2019-04-27T15:05:05.061Z,12.36
2019-04-27T15:10:09.266Z,12.69
2019-04-27T15:15:14.444Z,11.86
2019-04-27T15:20:22.597Z,11.29
2019-04-27T15:25:24.717Z,11.31
2019-04-27T15:30:28.910Z,11.94
2019-04-27T15:35:35.522Z,11.94
2019-04-27T15:40:43.786Z,11.67
2019-04-27T15:45:45.236Z,11.64
2019-04-27T15:50:52.106Z,11.63
2019-04-27T15:56:00.124Z,11.74
2019-04-27T16:01:05.959Z,12.05
2019-04-27T16:06:11.817Z,11.81
2019-04-27T16:11:16.386Z,11.81
2019-04-27T16:16:20.267Z,11.58
2019-04-27T16:21:24.590Z,11.02
2019-04-27T16:26:28.769Z,11.22
2019-04-27T16:31:36.059Z,11.25
2019-04-27T16:36:43.677Z,11.36
2019-04-27T16:41:50.272Z,11.25
2019-04-27T16:46:53.318Z,11.06
2019-04-27T16:51:59.041Z,10.94
2019-04-27T16:57:05.443Z,10.83
2019-04-27T17:02:10.157Z,10.72
2019-04-27T17:07:14.496Z,10.56
2019-04-27T17:12:23.456Z,10.50
2019-04-27T17:17:24.481Z,10.31
2019-04-27T17:22:29.024Z,10.19
2019-04-27T17:27:33.178Z,9.90
2019-04-27T17:32:38.986Z,9.94
2019-04-27T17:37:43.423Z,9.96
2019-04-27T17:42:48.155Z,9.86
2019-04-27T17:47:52.856Z,9.97
2019-04-27T17:52:58.985Z,9.91
2019-04-27T17:58:05.064Z,9.80
2019-04-27T18:03:12.665Z,9.57
2019-04-27T18:08:18.364Z,9.52
2019-04-27T18:13:25.454Z,9.40
2019-04-27T18:18:28.096Z,9.50
2019-04-27T18:23:32.744Z,9.35
2019-04-27T18:28:38.607Z,9.33
2019-04-27T18:33:43.380Z,9.30
2019-04-27T18:38:49.692Z,9.33
2019-04-27T18:43:55.845Z,9.23
2019-04-27T18:48:59.957Z,8.84
2019-04-27T18:54:04.495Z,8.86
2019-04-27T18:59:08.907Z,8.69
2019-04-27T19:04:13.223Z,8.59
2019-04-27T19:09:18.715Z,8.49
2019-04-27T19:14:22.985Z,8.41
2019-04-27T19:19:28.025Z,8.46
2019-04-27T19:24:32.531Z,8.48
2019-04-27T19:29:38.168Z,8.40
2019-04-27T19:34:42.540Z,8.40
2019-04-27T19:39:47.866Z,8.44
2019-04-27T19:44:52.708Z,8.47
2019-04-27T19:49:56.876Z,8.42
2019-04-27T19:55:01.204Z,8.44
2019-04-27T20:00:09.336Z,8.37
2019-04-27T20:05:16.485Z,8.32
2019-04-27T20:10:20.355Z,8.32
2019-04-27T20:15:24.507Z,8.32
2019-04-27T20:20:28.843Z,8.39
2019-04-27T20:25:33.133Z,8.40
2019-04-27T20:30:37.179Z,8.57
2019-04-27T20:35:42.627Z,8.55
2019-04-27T20:40:47.295Z,8.56
2019-04-27T20:45:51.601Z,8.69
2019-04-27T20:50:56.210Z,8.78
2019-04-27T20:56:00.405Z,8.80
2019-04-27T21:01:04.558Z,8.82
2019-04-27T21:06:08.664Z,8.86
2019-04-27T21:11:12.990Z,8.87
2019-04-27T21:16:17.218Z,8.90
2019-04-27T21:21:22.391Z,8.86
2019-04-27T21:26:26.565Z,8.80
2019-04-27T21:31:31.629Z,8.80
2019-04-27T21:36:35.872Z,8.86
2019-04-27T21:41:41.360Z,8.80
2019-04-27T21:46:45.796Z,8.78
2019-04-27T21:51:51.027Z,8.79
2019-04-27T21:56:55.078Z,8.82
2019-04-27T22:01:59.227Z,8.81
2019-04-27T22:07:03.390Z,8.81
2019-04-27T22:12:07.776Z,8.82
2019-04-27T22:17:11.863Z,8.83
2019-04-27T22:22:16.944Z,8.86
2019-04-27T22:27:21.186Z,8.89
2019-04-27T22:32:25.456Z,8.82
2019-04-27T22:37:31.135Z,8.92
2019-04-27T22:42:35.435Z,9.02
2019-04-27T22:47:40.839Z,9.04
2019-04-27T22:52:45.119Z,9.00
2019-04-27T22:57:51.462Z,8.93
2019-04-27T23:02:55.165Z,8.92
2019-04-27T23:07:59.356Z,8.84
2019-04-27T23:13:03.534Z,8.82
2019-04-27T23:18:07.969Z,8.84
2019-04-27T23:23:12.316Z,8.85
2019-04-27T23:28:16.629Z,8.84
2019-04-27T23:33:21.187Z,8.95
2019-04-27T23:38:25.385Z,8.92
2019-04-27T23:43:29.458Z,8.88
2019-04-27T23:48:33.658Z,8.85
2019-04-27T23:53:37.897Z,8.84
2019-04-27T23:58:42.086Z,8.71
